createdAt,value
2018-06-17T00:00:24.362Z,85.80
2018-06-17T00:02:26.502Z,85.50
2018-06-17T00:04:28.653Z,86.00
2018-06-17T00:06:30.885Z,85.30
2018-06-17T00:08:33.027Z,85.10
2018-06-17T00:10:35.189Z,85.30
2018-06-17T00:12:37.385Z,85.20
2018-06-17T00:14:39.517Z,85.30
2018-06-17T00:16:41.665Z,85.20
2018-06-17T00:18:43.833Z,85.90
2018-06-17T00:20:45.990Z,85.90
2018-06-17T00:22:48.125Z,86.30
2018-06-17T00:24:50.250Z,88.10
2018-06-17T00:26:52.710Z,89.70
2018-06-17T00:28:54.860Z,90.40
2018-06-17T00:30:56.990Z,90.00
2018-06-17T00:32:59.158Z,91.40
2018-06-17T00:35:01.285Z,91.80
2018-06-17T00:37:03.421Z,91.80
2018-06-17T00:39:10.453Z,91.70
2018-06-17T00:41:12.594Z,89.50
2018-06-17T00:43:14.738Z,88.70
2018-06-17T00:45:16.962Z,87.70
2018-06-17T00:47:19.147Z,87.30
2018-06-17T00:49:21.230Z,86.60
2018-06-17T00:51:24.330Z,86.10
2018-06-17T00:53:26.467Z,85.70
2018-06-17T00:55:28.629Z,85.90
2018-06-17T00:57:42.800Z,85.70
2018-06-17T00:59:44.933Z,85.30
2018-06-17T01:01:47.123Z,85.10
2018-06-17T01:03:49.716Z,85.00
2018-06-17T01:05:51.838Z,85.20
2018-06-17T01:07:53.977Z,85.10
2018-06-17T01:09:56.122Z,84.70
2018-06-17T01:11:58.353Z,84.70
2018-06-17T01:14:00.521Z,84.80
2018-06-17T01:16:02.681Z,86.40
2018-06-17T01:18:04.906Z,88.50
2018-06-17T01:20:07.780Z,89.90
2018-06-17T01:22:09.990Z,90.30
2018-06-17T01:24:12.176Z,91.70
2018-06-17T01:26:14.322Z,90.50
2018-06-17T01:28:16.450Z,89.60
2018-06-17T01:30:18.611Z,88.30
2018-06-17T01:32:20.743Z,87.30
2018-06-17T01:34:22.889Z,89.30
2018-06-17T01:36:25.052Z,89.90
2018-06-17T01:38:27.205Z,88.60
2018-06-17T01:40:29.510Z,89.50
2018-06-17T01:42:31.613Z,90.20
2018-06-17T01:44:34.174Z,91.10
2018-06-17T01:46:36.338Z,90.30
2018-06-17T01:48:38.453Z,90.40
2018-06-17T01:50:40.597Z,88.80
2018-06-17T01:52:42.769Z,89.00
2018-06-17T01:54:44.910Z,91.40
2018-06-17T01:56:47.070Z,92.70
2018-06-17T01:58:49.218Z,92.80
2018-06-17T02:00:51.367Z,93.40
2018-06-17T02:02:53.489Z,92.40
2018-06-17T02:05:01.487Z,92.60
2018-06-17T02:07:09.438Z,91.80
2018-06-17T02:09:17.472Z,92.20
2018-06-17T02:11:25.857Z,92.60
2018-06-17T02:13:27.991Z,91.30
2018-06-17T02:15:30.122Z,91.00
2018-06-17T02:17:32.286Z,91.20
2018-06-17T02:19:34.453Z,90.70
2018-06-17T02:21:36.718Z,89.70
2018-06-17T02:23:38.855Z,89.00
2018-06-17T02:25:41.005Z,89.20
2018-06-17T02:27:43.153Z,90.30
2018-06-17T02:29:45.277Z,90.70
2018-06-17T02:31:47.453Z,90.90
2018-06-17T02:33:49.570Z,90.80
2018-06-17T02:35:51.704Z,91.00
2018-06-17T02:37:53.878Z,90.50
2018-06-17T02:39:56.029Z,90.70
2018-06-17T02:41:58.210Z,90.90
2018-06-17T02:44:06.527Z,91.20
2018-06-17T02:46:14.538Z,90.70
2018-06-17T02:48:22.529Z,91.20
2018-06-17T02:50:30.343Z,91.00
2018-06-17T02:52:38.317Z,91.40
2018-06-17T02:54:42.545Z,90.80
2018-06-17T02:56:44.693Z,91.70
2018-06-17T02:58:46.842Z,92.60
2018-06-17T03:00:49.008Z,93.60
2018-06-17T03:02:51.164Z,94.40
2018-06-17T03:04:53.289Z,94.40
2018-06-17T03:06:55.434Z,94.90
2018-06-17T03:08:57.603Z,95.00
2018-06-17T03:10:59.750Z,94.90
2018-06-17T03:13:01.890Z,95.00
2018-06-17T03:15:04.175Z,95.20
2018-06-17T03:17:06.323Z,95.30
2018-06-17T03:19:08.452Z,95.90
2018-06-17T03:21:10.602Z,95.90
2018-06-17T03:23:12.733Z,95.30
2018-06-17T03:25:20.582Z,94.50
2018-06-17T03:27:28.537Z,94.20
2018-06-17T03:29:36.422Z,95.00
2018-06-17T03:31:44.250Z,94.90
2018-06-17T03:33:51.573Z,95.40
2018-06-17T03:35:59.843Z,95.80
2018-06-17T03:38:01.978Z,95.90
2018-06-17T03:40:04.133Z,96.30
2018-06-17T03:42:06.295Z,96.50
2018-06-17T03:44:08.437Z,96.40
2018-06-17T03:46:10.581Z,96.70
2018-06-17T03:48:12.718Z,96.60
2018-06-17T03:50:14.862Z,96.70
2018-06-17T03:52:17.006Z,96.80
2018-06-17T03:54:19.178Z,96.90
2018-06-17T03:56:21.308Z,96.80
2018-06-17T03:58:23.454Z,96.20
2018-06-17T04:00:25.581Z,96.10
2018-06-17T04:02:27.693Z,96.30
2018-06-17T04:04:34.459Z,97.00
2018-06-17T04:06:36.614Z,97.00
2018-06-17T04:08:38.754Z,97.50
2018-06-17T04:10:40.918Z,97.30
2018-06-17T04:12:43.042Z,97.50
2018-06-17T04:14:45.173Z,97.30
2018-06-17T04:16:47.316Z,96.90
2018-06-17T04:18:49.461Z,96.80
2018-06-17T04:20:51.598Z,96.60
2018-06-17T04:22:53.890Z,96.50
2018-06-17T04:24:56.125Z,96.00
2018-06-17T04:26:58.264Z,95.70
2018-06-17T04:29:00.435Z,95.50
2018-06-17T04:31:02.561Z,94.80
2018-06-17T04:33:04.766Z,94.30
2018-06-17T04:35:06.935Z,95.00
2018-06-17T04:37:09.104Z,95.00
2018-06-17T04:39:11.236Z,94.40
2018-06-17T04:41:13.401Z,94.80
2018-06-17T04:43:15.562Z,94.40
2018-06-17T04:45:17.746Z,94.80
2018-06-17T04:47:19.889Z,95.00
2018-06-17T04:49:22.010Z,94.80
2018-06-17T04:51:24.150Z,93.30
2018-06-17T04:53:26.302Z,94.00
2018-06-17T04:55:28.438Z,94.40
2018-06-17T04:57:30.779Z,93.50
2018-06-17T04:59:32.941Z,94.00
2018-06-17T05:01:35.350Z,93.00
2018-06-17T05:03:37.486Z,93.40
2018-06-17T05:05:39.628Z,93.20
2018-06-17T05:07:41.821Z,92.30
2018-06-17T05:09:43.969Z,92.60
2018-06-17T05:11:46.228Z,91.80
2018-06-17T05:13:48.375Z,92.20
2018-06-17T05:15:50.507Z,91.30
2018-06-17T05:17:52.695Z,91.70
2018-06-17T05:21:56.977Z,90.20
2018-06-17T05:23:59.146Z,90.50
2018-06-17T05:26:01.282Z,89.70
2018-06-17T05:28:03.437Z,89.30
2018-06-17T05:30:05.629Z,89.50
2018-06-17T05:32:07.785Z,90.00
2018-06-17T05:34:09.952Z,89.30
2018-06-17T05:36:12.119Z,88.60
2018-06-17T05:38:14.274Z,89.10
2018-06-17T05:40:16.692Z,89.00
2018-06-17T05:42:18.835Z,87.70
2018-06-17T05:44:20.977Z,88.10
2018-06-17T05:46:23.137Z,88.30
2018-06-17T05:48:25.258Z,87.50
2018-06-17T05:50:27.402Z,88.00
2018-06-17T05:52:29.591Z,87.20
2018-06-17T05:54:31.742Z,86.70
2018-06-17T05:56:33.872Z,85.70
2018-06-17T05:58:36.030Z,86.70
2018-06-17T06:00:38.166Z,86.10
2018-06-17T06:02:40.306Z,85.20
2018-06-17T06:04:43.477Z,85.30
2018-06-17T06:06:45.638Z,85.90
2018-06-17T06:08:47.777Z,86.60
2018-06-17T06:10:49.925Z,85.90
2018-06-17T06:12:52.041Z,85.90
2018-06-17T06:14:54.169Z,86.50
2018-06-17T06:16:56.502Z,87.00
2018-06-17T06:18:58.659Z,86.30
2018-06-17T06:21:00.800Z,85.50
2018-06-17T06:23:02.970Z,85.30
2018-06-17T06:25:05.191Z,84.70
2018-06-17T06:27:07.346Z,84.50
2018-06-17T06:31:12.117Z,84.30
2018-06-17T06:33:14.270Z,84.10
2018-06-17T06:35:16.414Z,84.00
2018-06-17T06:37:25.411Z,83.60
2018-06-17T06:39:27.553Z,82.80
2018-06-17T06:41:29.691Z,84.30
2018-06-17T06:43:32.593Z,84.20
2018-06-17T06:45:34.958Z,83.80
2018-06-17T06:47:37.214Z,83.20
2018-06-17T06:49:39.366Z,82.70
2018-06-17T06:51:41.590Z,83.00
2018-06-17T06:53:43.921Z,83.00
2018-06-17T06:55:47.274Z,83.10
2018-06-17T06:57:49.452Z,83.50
2018-06-17T06:59:51.582Z,83.10
2018-06-17T07:02:05.337Z,82.50
2018-06-17T07:04:19.426Z,81.40
2018-06-17T07:06:33.339Z,82.30
2018-06-17T07:08:47.129Z,82.10
2018-06-17T07:10:50.212Z,82.10
2018-06-17T07:12:52.521Z,81.30
2018-06-17T07:14:54.655Z,81.20
2018-06-17T07:17:08.443Z,81.40
2018-06-17T07:19:10.746Z,80.60
2018-06-17T07:21:12.884Z,80.80
2018-06-17T07:23:15.056Z,81.20
2018-06-17T07:25:33.157Z,80.70
2018-06-17T07:28:55.635Z,81.10
2018-06-17T07:30:57.785Z,81.30
2018-06-17T07:32:59.966Z,81.40
2018-06-17T07:35:02.114Z,79.90
2018-06-17T07:37:04.427Z,79.60
2018-06-17T07:41:51.470Z,80.40
2018-06-17T07:43:53.933Z,80.50
2018-06-17T07:45:55.986Z,81.00
2018-06-17T07:47:58.130Z,81.10
2018-06-17T07:50:11.908Z,80.90
2018-06-17T07:52:26.770Z,81.00
2018-06-17T07:54:28.894Z,81.30
2018-06-17T07:56:31.025Z,81.30
2018-06-17T07:58:33.173Z,81.00
2018-06-17T08:00:35.282Z,80.90
2018-06-17T08:02:37.491Z,80.80
2018-06-17T08:04:39.658Z,81.30
2018-06-17T08:06:41.810Z,81.20
2018-06-17T08:08:44.230Z,81.20
2018-06-17T08:10:46.438Z,80.50
2018-06-17T08:12:48.517Z,80.30
2018-06-17T08:14:50.726Z,79.20
2018-06-17T08:16:53.733Z,79.10
2018-06-17T08:18:55.869Z,78.00
2018-06-17T08:20:58.023Z,77.80
2018-06-17T08:23:00.144Z,77.80
2018-06-17T08:25:02.293Z,76.90
2018-06-17T08:27:04.474Z,76.90
2018-06-17T08:29:06.633Z,78.00
2018-06-17T08:31:08.750Z,78.00
2018-06-17T08:33:10.890Z,77.50
2018-06-17T08:35:13.190Z,76.20
2018-06-17T08:37:15.351Z,76.10
2018-06-17T08:39:18.661Z,76.90
2018-06-17T08:41:21.099Z,76.50
2018-06-17T08:43:23.219Z,76.30
2018-06-17T08:45:25.366Z,76.80
2018-06-17T08:47:27.505Z,77.40
2018-06-17T08:49:29.661Z,77.80
2018-06-17T08:51:31.797Z,77.50
2018-06-17T08:53:33.945Z,77.40
2018-06-17T08:55:36.077Z,77.50
2018-06-17T08:57:38.361Z,77.50
2018-06-17T08:59:40.533Z,75.90
2018-06-17T09:01:42.681Z,76.10
2018-06-17T09:03:44.794Z,75.90
2018-06-17T09:05:46.955Z,75.60
2018-06-17T09:07:49.077Z,75.60
2018-06-17T09:09:51.208Z,74.90
2018-06-17T09:11:53.350Z,74.50
2018-06-17T09:13:55.666Z,74.80
2018-06-17T09:15:57.779Z,74.70
2018-06-17T09:18:00.197Z,74.90
2018-06-17T09:20:02.377Z,75.50
2018-06-17T09:22:04.555Z,75.50
2018-06-17T09:24:06.734Z,75.40
2018-06-17T09:26:08.963Z,75.30
2018-06-17T09:28:11.093Z,75.10
2018-06-17T09:30:13.237Z,74.90
2018-06-17T09:32:15.409Z,74.60
2018-06-17T09:34:17.554Z,74.30
2018-06-17T09:36:19.685Z,74.10
2018-06-17T09:38:21.831Z,73.90
2018-06-17T09:40:23.981Z,73.90
2018-06-17T09:42:26.109Z,73.20
2018-06-17T09:44:28.398Z,73.80
2018-06-17T09:46:30.365Z,73.70
2018-06-17T09:48:32.501Z,74.30
2018-06-17T09:50:34.825Z,73.60
2018-06-17T09:52:36.973Z,73.40
2018-06-17T09:54:39.089Z,73.70
2018-06-17T09:56:41.223Z,73.70
2018-06-17T09:58:43.363Z,73.30
2018-06-17T10:00:45.525Z,73.40
2018-06-17T10:02:48.450Z,73.20
2018-06-17T10:04:50.634Z,73.50
2018-06-17T10:06:52.790Z,72.50
2018-06-17T10:08:54.938Z,72.80
2018-06-17T10:11:03.767Z,71.80
2018-06-17T10:13:05.974Z,71.90
2018-06-17T10:15:08.295Z,71.80
2018-06-17T10:17:10.472Z,72.50
2018-06-17T10:19:12.594Z,71.70
2018-06-17T10:21:14.850Z,72.60
2018-06-17T10:23:16.938Z,72.20
2018-06-17T10:25:19.089Z,72.10
2018-06-17T10:27:21.258Z,72.60
2018-06-17T10:29:23.429Z,71.50
2018-06-17T10:31:25.574Z,70.10
2018-06-17T10:33:27.734Z,69.10
2018-06-17T10:35:30.010Z,69.20
2018-06-17T10:37:32.141Z,68.70
2018-06-17T10:39:34.301Z,69.00
2018-06-17T10:41:36.453Z,69.10
2018-06-17T10:43:38.599Z,67.50
2018-06-17T10:45:41.121Z,68.10
2018-06-17T10:47:43.902Z,66.70
2018-06-17T10:49:46.077Z,67.00
2018-06-17T10:51:48.220Z,66.50
2018-06-17T10:53:50.366Z,63.50
2018-06-17T10:55:52.730Z,62.50
2018-06-17T10:57:54.793Z,63.30
2018-06-17T10:59:56.934Z,63.80
2018-06-17T11:01:59.071Z,62.90
2018-06-17T11:04:01.226Z,61.20
2018-06-17T11:06:03.416Z,61.20
2018-06-17T11:08:05.933Z,61.20
2018-06-17T11:10:08.214Z,62.20
2018-06-17T11:12:10.402Z,62.40
2018-06-17T11:14:12.549Z,62.20
2018-06-17T11:16:14.679Z,62.30
2018-06-17T11:18:16.837Z,62.30
2018-06-17T11:20:18.958Z,61.10
2018-06-17T11:22:21.256Z,59.30
2018-06-17T11:24:23.382Z,58.70
2018-06-17T11:26:25.793Z,58.00
2018-06-17T11:28:27.917Z,58.90
2018-06-17T11:30:30.042Z,58.10
2018-06-17T11:32:32.186Z,58.20
2018-06-17T11:34:34.474Z,57.80
2018-06-17T11:36:36.647Z,60.20
2018-06-17T11:38:38.785Z,61.40
2018-06-17T11:40:40.953Z,61.70
2018-06-17T11:42:43.111Z,61.70
2018-06-17T11:44:45.258Z,60.70
2018-06-17T11:46:47.402Z,60.70
2018-06-17T11:48:49.566Z,61.40
2018-06-17T11:50:51.795Z,62.10
2018-06-17T11:52:53.898Z,61.70
2018-06-17T11:54:56.033Z,61.80
2018-06-17T11:56:58.166Z,60.40
2018-06-17T11:59:00.294Z,60.20
2018-06-17T12:01:02.482Z,59.00
2018-06-17T12:03:04.681Z,58.70
2018-06-17T12:05:06.825Z,58.60
2018-06-17T12:07:08.958Z,59.30
2018-06-17T12:09:11.534Z,59.60
2018-06-17T12:11:13.686Z,60.30
2018-06-17T12:13:15.840Z,60.20
2018-06-17T12:15:17.962Z,60.60
2018-06-17T12:17:20.119Z,60.30
2018-06-17T12:19:22.325Z,59.70
2018-06-17T12:21:24.438Z,60.40
2018-06-17T12:23:26.561Z,60.60
2018-06-17T12:25:28.827Z,60.90
2018-06-17T12:29:33.241Z,61.90
2018-06-17T12:31:35.358Z,61.50
2018-06-17T12:33:37.506Z,60.90
2018-06-17T12:35:39.947Z,61.30
2018-06-17T12:37:42.720Z,61.80
2018-06-17T12:39:47.078Z,60.90
2018-06-17T12:41:49.345Z,61.50
2018-06-17T12:43:51.471Z,61.50
2018-06-17T12:45:53.594Z,60.10
2018-06-17T12:47:55.786Z,60.30
2018-06-17T12:49:57.965Z,61.00
2018-06-17T12:52:00.145Z,61.00
2018-06-17T12:54:02.327Z,61.60
2018-06-17T12:56:04.615Z,60.70
2018-06-17T12:58:06.761Z,62.30
2018-06-17T13:00:08.926Z,62.80
2018-06-17T13:02:11.073Z,63.90
2018-06-17T13:04:13.214Z,64.40
2018-06-17T13:06:15.385Z,64.40
2018-06-17T13:08:17.543Z,64.90
2018-06-17T13:10:19.707Z,65.00
2018-06-17T13:12:21.869Z,65.30
2018-06-17T13:14:23.997Z,65.50
2018-06-17T13:16:26.587Z,66.00
2018-06-17T13:18:28.725Z,66.60
2018-06-17T13:20:30.927Z,67.00
2018-06-17T13:22:33.472Z,67.10
2018-06-17T13:24:35.698Z,67.30
2018-06-17T13:26:37.862Z,67.60
2018-06-17T13:28:39.997Z,67.50
2018-06-17T13:30:42.166Z,66.10
2018-06-17T13:32:44.311Z,64.80
2018-06-17T13:34:46.446Z,62.70
2018-06-17T13:36:48.625Z,62.30
2018-06-17T13:38:50.786Z,63.90
2018-06-17T13:40:52.950Z,65.00
2018-06-17T13:42:55.742Z,65.50
2018-06-17T13:49:02.263Z,65.30
2018-06-17T13:51:04.411Z,64.40
2018-06-17T13:53:06.657Z,63.80
2018-06-17T13:55:08.893Z,64.50
2018-06-17T13:57:11.034Z,65.30
2018-06-17T13:59:13.169Z,66.30
2018-06-17T14:01:15.310Z,67.20
2018-06-17T14:03:17.476Z,66.50
2018-06-17T14:05:19.621Z,66.70
2018-06-17T14:07:21.753Z,67.90
2018-06-17T14:09:23.894Z,69.50
2018-06-17T14:11:26.034Z,70.80
2018-06-17T14:13:28.269Z,71.40
2018-06-17T14:15:30.509Z,72.00
2018-06-17T14:17:32.646Z,71.80
2018-06-17T14:19:34.978Z,71.60
2018-06-17T14:21:37.153Z,71.60
2018-06-17T14:23:39.290Z,72.10
2018-06-17T14:25:41.472Z,72.80
2018-06-17T14:27:43.644Z,72.60
2018-06-17T14:29:45.825Z,72.90
2018-06-17T14:31:48.059Z,72.90
2018-06-17T14:33:50.221Z,73.90
2018-06-17T14:35:52.364Z,73.10
2018-06-17T14:37:54.518Z,72.30
2018-06-17T14:39:57.073Z,71.80
2018-06-17T14:42:04.884Z,71.30
2018-06-17T14:44:12.753Z,70.50
2018-06-17T14:46:20.685Z,70.20
2018-06-17T14:48:28.422Z,69.60
2018-06-17T14:50:36.235Z,69.40
2018-06-17T14:52:44.010Z,69.20
2018-06-17T14:54:46.198Z,68.60
2018-06-17T14:56:48.342Z,68.40
2018-06-17T14:58:50.525Z,68.40
2018-06-17T15:00:52.641Z,69.30
2018-06-17T15:02:54.793Z,69.60
2018-06-17T15:04:57.333Z,70.30
2018-06-17T15:06:59.536Z,70.00
2018-06-17T15:09:01.678Z,69.80
2018-06-17T15:11:03.852Z,69.90
2018-06-17T15:13:06.029Z,70.10
2018-06-17T15:15:08.196Z,70.10
2018-06-17T15:17:10.335Z,70.50
2018-06-17T15:19:12.482Z,70.40
2018-06-17T15:21:14.661Z,70.30
2018-06-17T15:23:16.799Z,71.00
2018-06-17T15:25:18.973Z,70.70
2018-06-17T15:27:21.134Z,70.20
2018-06-17T15:29:23.276Z,69.90
2018-06-17T15:31:31.161Z,69.50
2018-06-17T15:33:39.005Z,69.10
2018-06-17T15:35:47.009Z,69.10
2018-06-17T15:37:54.958Z,69.20
2018-06-17T15:39:57.582Z,68.70
2018-06-17T15:41:59.708Z,68.00
2018-06-17T15:44:01.963Z,67.90
2018-06-17T15:46:04.127Z,66.50
2018-06-17T15:48:06.282Z,66.90
2018-06-17T15:50:08.434Z,66.00
2018-06-17T15:52:10.570Z,66.00
2018-06-17T15:54:12.717Z,65.40
2018-06-17T15:56:14.923Z,65.40
2018-06-17T15:58:17.121Z,65.20
2018-06-17T16:00:19.264Z,65.50
2018-06-17T16:02:21.416Z,65.50
2018-06-17T16:04:23.593Z,65.20
2018-06-17T16:06:25.753Z,65.50
2018-06-17T16:08:27.917Z,65.80
2018-06-17T16:10:30.082Z,65.50
2018-06-17T16:12:38.146Z,65.90
2018-06-17T16:14:45.822Z,65.70
2018-06-17T16:16:53.907Z,66.80
2018-06-17T16:19:01.906Z,67.10
2018-06-17T16:21:06.201Z,66.60
2018-06-17T16:23:08.630Z,66.60
2018-06-17T16:25:10.755Z,66.90
2018-06-17T16:27:12.898Z,66.40
2018-06-17T16:29:15.050Z,66.40
2018-06-17T16:31:17.214Z,67.50
2018-06-17T16:33:19.357Z,67.40
2018-06-17T16:35:21.505Z,67.10
2018-06-17T16:37:23.669Z,66.50
2018-06-17T16:39:25.826Z,66.50
2018-06-17T16:41:27.982Z,67.10
2018-06-17T16:43:30.138Z,66.80
2018-06-17T16:45:32.254Z,66.80
2018-06-17T16:47:34.394Z,66.50
2018-06-17T16:49:36.545Z,67.20
2018-06-17T16:51:44.457Z,66.80
2018-06-17T16:53:52.300Z,66.80
2018-06-17T16:56:00.166Z,66.70
2018-06-17T16:58:07.962Z,66.70
2018-06-17T17:00:20.269Z,65.90
2018-06-17T17:02:22.456Z,65.90
2018-06-17T17:04:24.597Z,66.30
2018-06-17T17:06:26.760Z,66.10
2018-06-17T17:08:28.913Z,66.10
2018-06-17T17:10:31.554Z,66.30
2018-06-17T17:12:33.684Z,66.40
2018-06-17T17:14:35.825Z,66.80
2018-06-17T17:16:38.087Z,66.90
2018-06-17T17:18:40.214Z,66.70
2018-06-17T17:20:42.360Z,66.60
2018-06-17T17:22:44.526Z,66.30
2018-06-17T17:24:46.686Z,66.30
2018-06-17T17:26:48.832Z,66.30
2018-06-17T17:28:50.989Z,66.30
2018-06-17T17:30:53.125Z,65.90
2018-06-17T17:33:01.288Z,67.30
2018-06-17T17:35:09.474Z,67.50
2018-06-17T17:37:17.278Z,67.00
2018-06-17T17:40:27.774Z,66.70
2018-06-17T17:42:30.079Z,67.50
2018-06-17T17:44:38.070Z,67.00
2018-06-17T17:46:45.864Z,67.20
2018-06-17T17:48:48.034Z,67.30
2018-06-17T17:50:50.190Z,66.90
2018-06-17T17:52:52.336Z,67.00
2018-06-17T17:54:54.501Z,66.60
2018-06-17T17:58:58.789Z,67.90
2018-06-17T18:01:00.942Z,68.10
2018-06-17T18:03:03.258Z,67.50
2018-06-17T18:05:05.333Z,67.10
2018-06-17T18:07:07.606Z,67.20
2018-06-17T18:09:09.741Z,67.50
2018-06-17T18:11:11.923Z,67.40
2018-06-17T18:13:14.025Z,68.10
2018-06-17T18:15:16.246Z,67.80
2018-06-17T18:17:18.682Z,68.00
2018-06-17T18:19:20.842Z,68.00
2018-06-17T18:21:22.966Z,68.20
2018-06-17T18:23:25.136Z,67.90
2018-06-17T18:25:33.075Z,68.00
2018-06-17T18:27:40.994Z,68.40
2018-06-17T18:29:48.729Z,68.40
2018-06-17T18:31:56.639Z,68.30
2018-06-17T18:34:04.691Z,68.80
2018-06-17T18:36:10.608Z,69.00
2018-06-17T18:38:12.739Z,69.70
2018-06-17T18:40:14.966Z,69.30
2018-06-17T18:42:17.082Z,69.40
2018-06-17T18:44:19.225Z,69.60
2018-06-17T18:46:21.403Z,69.80
2018-06-17T18:48:23.874Z,69.50
2018-06-17T18:50:26.055Z,69.50
2018-06-17T18:54:30.358Z,71.40
2018-06-17T18:56:32.548Z,70.80
2018-06-17T18:58:34.993Z,70.70
2018-06-17T19:00:37.141Z,70.10
2018-06-17T19:02:39.293Z,71.50
2018-06-17T19:04:41.485Z,72.00
2018-06-17T19:06:43.637Z,71.20
2018-06-17T19:08:51.590Z,70.40
2018-06-17T19:10:59.370Z,69.90
2018-06-17T19:13:07.336Z,71.00
2018-06-17T19:15:15.196Z,70.50
2018-06-17T19:17:23.007Z,70.20
2018-06-17T19:19:25.212Z,69.70
2018-06-17T19:21:27.368Z,70.10
2018-06-17T19:23:29.598Z,70.10
2018-06-17T19:25:31.758Z,69.90
2018-06-17T19:27:33.917Z,69.80
2018-06-17T19:29:36.043Z,69.90
2018-06-17T19:31:38.218Z,70.10
2018-06-17T19:33:40.366Z,70.10
2018-06-17T19:35:42.497Z,70.00
2018-06-17T19:37:44.688Z,69.80
2018-06-17T19:39:46.838Z,69.60
2018-06-17T19:41:48.982Z,69.90
2018-06-17T19:43:51.155Z,69.80
2018-06-17T19:45:53.312Z,70.20
2018-06-17T19:47:55.471Z,70.50
2018-06-17T19:50:03.329Z,70.40
2018-06-17T19:52:11.130Z,70.40
2018-06-17T19:54:19.010Z,70.20
2018-06-17T19:56:26.841Z,70.80
2018-06-17T19:58:34.737Z,70.60
2018-06-17T20:00:39.498Z,70.50
2018-06-17T20:02:41.675Z,70.90
2018-06-17T20:04:43.848Z,70.80
2018-06-17T20:06:45.990Z,70.90
2018-06-17T20:08:48.195Z,70.90
2018-06-17T20:10:50.517Z,70.70
2018-06-17T20:12:52.745Z,71.00
2018-06-17T20:14:54.900Z,71.00
2018-06-17T20:16:57.087Z,71.20
2018-06-17T20:18:59.242Z,71.50
2018-06-17T20:21:01.377Z,71.10
2018-06-17T20:23:03.576Z,71.30
2018-06-17T20:25:05.762Z,71.40
2018-06-17T20:27:07.981Z,71.70
2018-06-17T20:29:10.302Z,71.70
2018-06-17T20:31:12.406Z,71.90
2018-06-17T20:34:17.876Z,72.20
2018-06-17T20:38:33.613Z,72.20
2018-06-17T20:40:41.483Z,72.60
2018-06-17T20:42:49.454Z,72.60
2018-06-17T20:44:51.582Z,73.20
2018-06-17T20:46:55.219Z,73.40
2018-06-17T20:48:57.645Z,73.20
2018-06-17T20:50:59.763Z,73.60
2018-06-17T20:53:01.938Z,73.50
2018-06-17T20:55:04.234Z,73.60
2018-06-17T20:57:06.371Z,73.60
2018-06-17T20:59:08.794Z,74.00
2018-06-17T21:01:10.977Z,74.10
2018-06-17T21:03:13.273Z,74.30
2018-06-17T21:05:15.459Z,74.50
2018-06-17T21:07:17.624Z,74.70
2018-06-17T21:09:19.778Z,74.70
2018-06-17T21:11:22.208Z,75.10
2018-06-17T21:13:24.365Z,75.60
2018-06-17T21:15:26.503Z,76.00
2018-06-17T21:17:28.758Z,76.20
2018-06-17T21:19:36.759Z,76.20
2018-06-17T21:21:44.650Z,76.20
2018-06-17T21:23:52.445Z,76.30
2018-06-17T21:26:00.363Z,76.30
2018-06-17T21:28:02.786Z,76.60
2018-06-17T21:30:04.967Z,76.70
2018-06-17T21:32:07.153Z,76.60
2018-06-17T21:34:09.789Z,76.60
2018-06-17T21:36:12.004Z,76.80
2018-06-17T21:38:14.128Z,76.80
2018-06-17T21:40:16.289Z,76.70
2018-06-17T21:42:18.476Z,76.50
2018-06-17T21:44:20.643Z,76.50
2018-06-17T21:46:22.820Z,76.20
2018-06-17T21:48:25.130Z,76.30
2018-06-17T21:50:27.262Z,76.40
2018-06-17T21:52:29.400Z,76.70
2018-06-17T21:54:31.749Z,77.00
2018-06-17T21:56:33.991Z,76.90
2018-06-17T21:58:41.875Z,76.60
2018-06-17T22:00:44.010Z,76.90
2018-06-17T22:02:46.141Z,77.30
2018-06-17T22:04:48.407Z,77.30
2018-06-17T22:06:50.652Z,77.30
2018-06-17T22:08:58.704Z,77.20
2018-06-17T22:11:06.488Z,77.40
2018-06-17T22:13:09.839Z,77.30
2018-06-17T22:15:18.104Z,77.40
2018-06-17T22:17:25.822Z,77.30
2018-06-17T22:19:28.200Z,77.00
2018-06-17T22:21:30.315Z,77.10
2018-06-17T22:23:32.386Z,77.10
2018-06-17T22:25:34.474Z,77.10
2018-06-17T22:27:36.584Z,77.40
2018-06-17T22:29:38.658Z,77.50
2018-06-17T22:31:41.079Z,77.60
2018-06-17T22:33:43.190Z,77.60
2018-06-17T22:35:45.262Z,77.60
2018-06-17T22:37:47.338Z,77.60
2018-06-17T22:39:49.409Z,77.80
2018-06-17T22:41:51.490Z,78.50
2018-06-17T22:43:53.561Z,79.30
2018-06-17T22:45:55.642Z,78.90
2018-06-17T22:50:01.299Z,79.90
2018-06-17T22:52:03.382Z,79.00
2018-06-17T22:54:17.095Z,78.80
2018-06-17T22:56:25.080Z,78.90
2018-06-17T22:58:33.064Z,79.30
2018-06-17T23:00:40.815Z,80.20
2018-06-17T23:02:48.578Z,80.00
2018-06-17T23:05:55.840Z,80.00
2018-06-17T23:08:03.596Z,80.10
2018-06-17T23:10:07.350Z,79.90
2018-06-17T23:12:09.444Z,79.80
2018-06-17T23:14:12.241Z,80.00
2018-06-17T23:16:14.320Z,80.10
2018-06-17T23:18:16.409Z,80.10
2018-06-17T23:20:18.481Z,80.20
2018-06-17T23:22:20.561Z,80.30
2018-06-17T23:24:22.659Z,80.40
2018-06-17T23:26:24.762Z,80.50
2018-06-17T23:28:26.837Z,81.10
2018-06-17T23:30:29.050Z,80.90
2018-06-17T23:32:31.134Z,81.00
2018-06-17T23:34:33.202Z,81.20
2018-06-17T23:36:35.397Z,81.20
2018-06-17T23:38:37.480Z,81.40
2018-06-17T23:40:39.546Z,82.00
2018-06-17T23:42:41.813Z,82.40
2018-06-17T23:44:43.870Z,82.10
2018-06-17T23:46:51.666Z,82.10
2018-06-17T23:48:59.388Z,81.90
2018-06-17T23:51:07.233Z,82.10
2018-06-17T23:53:14.979Z,82.40
2018-06-17T23:55:22.829Z,82.30
2018-06-17T23:57:24.906Z,82.40
2018-06-17T23:59:27.005Z,82.40
